sensor_id;sensor_type;location;lat;lon;timestamp;pressure;altitude;pressure_sealevel;temperature;humidity
56330;BME280;42236;48.058;10.632;2023-07-31T00:08:29;94888.44;;;15.70;75.69
56330;BME280;42236;48.058;10.632;2023-07-31T00:11:15;94887.94;;;15.65;74.72
56330;BME280;42236;48.058;10.632;2023-07-31T00:14:01;94892.50;;;15.57;75.04
56330;BME280;42236;48.058;10.632;2023-07-31T00:16:46;94891.22;;;15.51;75.37
56330;BME280;42236;48.058;10.632;2023-07-31T00:19:35;94883.88;;;15.51;75.19
56330;BME280;42236;48.058;10.632;2023-07-31T00:22:30;94882.69;;;15.49;75.55
56330;BME280;42236;48.058;10.632;2023-07-31T00:25:16;94886.97;;;15.50;75.23
56330;BME280;42236;48.058;10.632;2023-07-31T00:28:01;94877.63;;;15.51;75.45
56330;BME280;42236;48.058;10.632;2023-07-31T00:30:58;94887.81;;;15.54;75.46
56330;BME280;42236;48.058;10.632;2023-07-31T00:33:47;94890.09;;;15.52;76.01
56330;BME280;42236;48.058;10.632;2023-07-31T00:36:51;94874.13;;;15.50;78.21
56330;BME280;42236;48.058;10.632;2023-07-31T00:39:37;94871.06;;;15.52;75.59
56330;BME280;42236;48.058;10.632;2023-07-31T00:42:24;94871.41;;;15.50;76.02
56330;BME280;42236;48.058;10.632;2023-07-31T00:48:14;94861.28;;;15.47;76.25
56330;BME280;42236;48.058;10.632;2023-07-31T00:51:00;94874.09;;;15.47;76.21
56330;BME280;42236;48.058;10.632;2023-07-31T00:53:49;94869.38;;;15.44;76.77
56330;BME280;42236;48.058;10.632;2023-07-31T00:56:35;94874.53;;;15.49;76.55
56330;BME280;42236;48.058;10.632;2023-07-31T00:59:21;94872.16;;;15.47;77.21
56330;BME280;42236;48.058;10.632;2023-07-31T01:12:23;94866.75;;;15.51;77.56
56330;BME280;42236;48.058;10.632;2023-07-31T01:15:12;94862.13;;;15.51;76.95
56330;BME280;42236;48.058;10.632;2023-07-31T01:17:59;94867.59;;;15.55;77.21
56330;BME280;42236;48.058;10.632;2023-07-31T01:20:48;94865.31;;;15.57;77.34
56330;BME280;42236;48.058;10.632;2023-07-31T01:26:34;94866.19;;;15.65;77.62
56330;BME280;42236;48.058;10.632;2023-07-31T01:32:31;94859.91;;;15.61;78.18
56330;BME280;42236;48.058;10.632;2023-07-31T01:35:43;94849.00;;;15.57;78.45
56330;BME280;42236;48.058;10.632;2023-07-31T01:38:32;94842.72;;;15.53;77.22
56330;BME280;42236;48.058;10.632;2023-07-31T01:41:23;94853.16;;;15.51;77.33
56330;BME280;42236;48.058;10.632;2023-07-31T01:44:09;94842.25;;;15.47;77.42
56330;BME280;42236;48.058;10.632;2023-07-31T01:46:55;94841.69;;;15.34;78.15
56330;BME280;42236;48.058;10.632;2023-07-31T01:49:41;94835.03;;;15.32;77.64
56330;BME280;42236;48.058;10.632;2023-07-31T01:52:26;94837.75;;;15.32;77.57
56330;BME280;42236;48.058;10.632;2023-07-31T01:55:12;94841.56;;;15.27;77.75
56330;BME280;42236;48.058;10.632;2023-07-31T01:57:58;94854.66;;;15.22;78.19
56330;BME280;42236;48.058;10.632;2023-07-31T02:00:44;94839.88;;;15.19;77.78
56330;BME280;42236;48.058;10.632;2023-07-31T02:03:30;94835.19;;;15.16;77.92
56330;BME280;42236;48.058;10.632;2023-07-31T02:09:12;94822.22;;;15.06;78.10
56330;BME280;42236;48.058;10.632;2023-07-31T02:11:57;94829.53;;;15.02;78.49
56330;BME280;42236;48.058;10.632;2023-07-31T02:14:43;94822.47;;;14.97;78.95
56330;BME280;42236;48.058;10.632;2023-07-31T02:21:12;94817.16;;;14.81;79.52
56330;BME280;42236;48.058;10.632;2023-07-31T02:23:58;94812.00;;;14.76;79.56
56330;BME280;42236;48.058;10.632;2023-07-31T02:26:50;94804.59;;;14.73;80.55
56330;BME280;42236;48.058;10.632;2023-07-31T02:33:01;94799.34;;;14.61;79.85
56330;BME280;42236;48.058;10.632;2023-07-31T02:35:46;94795.78;;;14.57;79.83
56330;BME280;42236;48.058;10.632;2023-07-31T02:38:32;94793.34;;;14.51;80.03
56330;BME280;42236;48.058;10.632;2023-07-31T02:45:13;94790.38;;;14.37;81.64
56330;BME280;42236;48.058;10.632;2023-07-31T02:47:59;94796.53;;;14.34;80.85
56330;BME280;42236;48.058;10.632;2023-07-31T02:50:45;94805.09;;;14.36;80.41
56330;BME280;42236;48.058;10.632;2023-07-31T02:53:31;94798.09;;;14.35;80.84
56330;BME280;42236;48.058;10.632;2023-07-31T02:56:17;94798.53;;;14.37;80.94
56330;BME280;42236;48.058;10.632;2023-07-31T02:59:03;94798.94;;;14.39;80.86
56330;BME280;42236;48.058;10.632;2023-07-31T03:01:49;94796.66;;;14.41;80.91
56330;BME280;42236;48.058;10.632;2023-07-31T03:04:34;94802.94;;;14.45;80.58
56330;BME280;42236;48.058;10.632;2023-07-31T03:07:20;94798.78;;;14.51;80.68
56330;BME280;42236;48.058;10.632;2023-07-31T03:10:08;94798.50;;;14.57;80.21
56330;BME280;42236;48.058;10.632;2023-07-31T03:12:54;94807.84;;;14.59;80.75
56330;BME280;42236;48.058;10.632;2023-07-31T03:15:42;94798.16;;;14.58;80.53
56330;BME280;42236;48.058;10.632;2023-07-31T03:18:44;94796.63;;;14.61;82.71
56330;BME280;42236;48.058;10.632;2023-07-31T03:28:46;94793.72;;;14.50;81.09
56330;BME280;42236;48.058;10.632;2023-07-31T03:31:32;94794.84;;;14.49;81.13
56330;BME280;42236;48.058;10.632;2023-07-31T03:34:39;94796.34;;;14.46;83.95
56330;BME280;42236;48.058;10.632;2023-07-31T03:37:25;94797.09;;;14.43;81.54
56330;BME280;42236;48.058;10.632;2023-07-31T03:40:12;94800.53;;;14.40;81.78
56330;BME280;42236;48.058;10.632;2023-07-31T03:42:57;94805.53;;;14.38;81.65
56330;BME280;42236;48.058;10.632;2023-07-31T03:46:01;94799.31;;;14.38;83.05
56330;BME280;42236;48.058;10.632;2023-07-31T03:48:50;94801.97;;;14.34;81.88
56330;BME280;42236;48.058;10.632;2023-07-31T03:51:38;94801.19;;;14.34;82.05
56330;BME280;42236;48.058;10.632;2023-07-31T03:54:24;94800.69;;;14.28;82.50
56330;BME280;42236;48.058;10.632;2023-07-31T04:00:40;94790.84;;;14.20;82.81
56330;BME280;42236;48.058;10.632;2023-07-31T04:03:26;94791.22;;;14.18;83.17
56330;BME280;42236;48.058;10.632;2023-07-31T04:06:12;94788.50;;;14.18;83.25
56330;BME280;42236;48.058;10.632;2023-07-31T04:08:58;94788.56;;;14.22;84.01
56330;BME280;42236;48.058;10.632;2023-07-31T04:11:43;94782.41;;;14.25;84.02
56330;BME280;42236;48.058;10.632;2023-07-31T04:18:16;94776.38;;;14.35;85.00
56330;BME280;42236;48.058;10.632;2023-07-31T04:21:02;94776.16;;;14.44;83.95
56330;BME280;42236;48.058;10.632;2023-07-31T04:23:48;94777.16;;;14.55;84.32
56330;BME280;42236;48.058;10.632;2023-07-31T04:30:16;94776.81;;;14.83;83.67
56330;BME280;42236;48.058;10.632;2023-07-31T04:33:05;94778.63;;;14.99;83.44
56330;BME280;42236;48.058;10.632;2023-07-31T04:35:53;94776.91;;;15.13;82.62
56330;BME280;42236;48.058;10.632;2023-07-31T04:38:39;94772.81;;;15.27;82.29
56330;BME280;42236;48.058;10.632;2023-07-31T04:41:26;94771.09;;;15.42;81.58
56330;BME280;42236;48.058;10.632;2023-07-31T04:47:51;94776.22;;;15.77;80.93
56330;BME280;42236;48.058;10.632;2023-07-31T04:50:43;94783.03;;;15.94;81.12
56330;BME280;42236;48.058;10.632;2023-07-31T04:53:28;94783.56;;;16.07;80.02
56330;BME280;42236;48.058;10.632;2023-07-31T04:56:44;94784.47;;;16.18;80.54
56330;BME280;42236;48.058;10.632;2023-07-31T04:59:29;94783.81;;;16.28;79.29
56330;BME280;42236;48.058;10.632;2023-07-31T05:05:15;94779.31;;;16.43;78.95
56330;BME280;42236;48.058;10.632;2023-07-31T05:08:01;94784.00;;;16.50;78.46
56330;BME280;42236;48.058;10.632;2023-07-31T05:10:47;94781.00;;;16.58;78.44
56330;BME280;42236;48.058;10.632;2023-07-31T05:13:33;94773.31;;;16.68;78.09
56330;BME280;42236;48.058;10.632;2023-07-31T05:16:18;94775.69;;;16.76;77.48
56330;BME280;42236;48.058;10.632;2023-07-31T05:19:04;94785.91;;;16.83;77.51
56330;BME280;42236;48.058;10.632;2023-07-31T05:21:50;94793.78;;;16.92;77.58
56330;BME280;42236;48.058;10.632;2023-07-31T05:24:39;94792.66;;;16.96;77.20
56330;BME280;42236;48.058;10.632;2023-07-31T05:27:25;94789.94;;;17.00;76.62
56330;BME280;42236;48.058;10.632;2023-07-31T05:30:11;94788.81;;;17.04;76.89
56330;BME280;42236;48.058;10.632;2023-07-31T05:32:57;94787.69;;;17.09;76.95
56330;BME280;42236;48.058;10.632;2023-07-31T05:35:42;94793.97;;;17.17;76.97
56330;BME280;42236;48.058;10.632;2023-07-31T05:38:36;94793.53;;;17.15;76.18
56330;BME280;42236;48.058;10.632;2023-07-31T05:41:30;94795.50;;;17.18;76.50
56330;BME280;42236;48.058;10.632;2023-07-31T05:44:16;94795.19;;;17.23;76.10
56330;BME280;42236;48.058;10.632;2023-07-31T05:47:02;94801.81;;;17.29;76.38
56330;BME280;42236;48.058;10.632;2023-07-31T05:49:48;94790.16;;;17.32;76.13
56330;BME280;42236;48.058;10.632;2023-07-31T05:52:34;94790.97;;;17.33;76.12
56330;BME280;42236;48.058;10.632;2023-07-31T05:55:20;94804.22;;;17.38;76.03
56330;BME280;42236;48.058;10.632;2023-07-31T05:58:06;94798.41;;;17.43;75.76
56330;BME280;42236;48.058;10.632;2023-07-31T06:00:52;94792.97;;;17.46;75.82
56330;BME280;42236;48.058;10.632;2023-07-31T06:04:09;94796.91;;;17.53;75.23
56330;BME280;42236;48.058;10.632;2023-07-31T06:06:54;94792.69;;;17.66;75.36
56330;BME280;42236;48.058;10.632;2023-07-31T06:09:41;94790.81;;;17.77;74.98
56330;BME280;42236;48.058;10.632;2023-07-31T06:12:26;94779.94;;;17.84;74.44
56330;BME280;42236;48.058;10.632;2023-07-31T06:15:12;94791.28;;;17.90;74.26
56330;BME280;42236;48.058;10.632;2023-07-31T06:17:58;94783.16;;;18.01;74.72
56330;BME280;42236;48.058;10.632;2023-07-31T06:20:44;94778.13;;;18.17;74.25
56330;BME280;42236;48.058;10.632;2023-07-31T06:23:30;94779.38;;;18.41;73.45
56330;BME280;42236;48.058;10.632;2023-07-31T06:26:16;94779.81;;;18.75;73.30
56330;BME280;42236;48.058;10.632;2023-07-31T06:29:07;94770.84;;;18.93;70.98
56330;BME280;42236;48.058;10.632;2023-07-31T06:31:53;94770.06;;;19.03;71.95
56330;BME280;42236;48.058;10.632;2023-07-31T06:34:39;94781.75;;;19.25;71.66
56330;BME280;42236;48.058;10.632;2023-07-31T06:37:45;94773.53;;;19.32;67.12
56330;BME280;42236;48.058;10.632;2023-07-31T06:40:31;94780.22;;;19.31;70.83
56330;BME280;42236;48.058;10.632;2023-07-31T06:43:17;94782.47;;;19.65;70.77
56330;BME280;42236;48.058;10.632;2023-07-31T06:46:06;94776.91;;;20.04;68.80
56330;BME280;42236;48.058;10.632;2023-07-31T06:48:52;94786.44;;;20.59;69.52
56330;BME280;42236;48.058;10.632;2023-07-31T06:51:41;94784.19;;;20.99;68.48
56330;BME280;42236;48.058;10.632;2023-07-31T06:54:29;94773.88;;;21.14;67.56
56330;BME280;42236;48.058;10.632;2023-07-31T06:57:15;94777.75;;;21.20;66.53
56330;BME280;42236;48.058;10.632;2023-07-31T07:00:01;94778.06;;;21.26;65.06
56330;BME280;42236;48.058;10.632;2023-07-31T07:02:48;94772.66;;;21.19;64.54
56330;BME280;42236;48.058;10.632;2023-07-31T07:05:35;94781.09;;;20.97;63.79
56330;BME280;42236;48.058;10.632;2023-07-31T07:08:21;94774.13;;;20.82;63.72
56330;BME280;42236;48.058;10.632;2023-07-31T07:11:06;94780.91;;;20.66;63.38
56330;BME280;42236;48.058;10.632;2023-07-31T07:13:55;94777.00;;;20.60;63.30
56330;BME280;42236;48.058;10.632;2023-07-31T07:16:41;94770.28;;;20.72;61.91
56330;BME280;42236;48.058;10.632;2023-07-31T07:19:27;94776.56;;;20.69;60.31
56330;BME280;42236;48.058;10.632;2023-07-31T07:22:14;94769.91;;;20.70;60.85
56330;BME280;42236;48.058;10.632;2023-07-31T07:25:00;94766.59;;;20.93;60.55
56330;BME280;42236;48.058;10.632;2023-07-31T07:27:45;94766.50;;;21.04;59.62
56330;BME280;42236;48.058;10.632;2023-07-31T07:30:34;94763.44;;;20.98;59.11
56330;BME280;42236;48.058;10.632;2023-07-31T07:33:20;94755.66;;;20.89;58.24
56330;BME280;42236;48.058;10.632;2023-07-31T07:36:06;94765.28;;;20.60;58.44
56330;BME280;42236;48.058;10.632;2023-07-31T07:38:55;94763.56;;;20.10;58.89
56330;BME280;42236;48.058;10.632;2023-07-31T07:41:41;94757.78;;;19.94;59.11
56330;BME280;42236;48.058;10.632;2023-07-31T07:44:33;94762.38;;;20.15;58.56
56330;BME280;42236;48.058;10.632;2023-07-31T07:47:22;94767.84;;;20.18;59.10
56330;BME280;42236;48.058;10.632;2023-07-31T07:50:14;94765.09;;;20.15;57.48
56330;BME280;42236;48.058;10.632;2023-07-31T07:53:03;94763.56;;;20.10;59.00
56330;BME280;42236;48.058;10.632;2023-07-31T07:55:49;94763.25;;;19.90;58.72
56330;BME280;42236;48.058;10.632;2023-07-31T07:59:13;94766.91;;;19.37;57.25
56330;BME280;42236;48.058;10.632;2023-07-31T08:02:02;94761.03;;;19.28;59.80
56330;BME280;42236;48.058;10.632;2023-07-31T08:08:31;94752.81;;;19.49;59.46
56330;BME280;42236;48.058;10.632;2023-07-31T08:11:43;94761.00;;;19.53;57.68
56330;BME280;42236;48.058;10.632;2023-07-31T08:14:29;94765.72;;;19.45;59.06
56330;BME280;42236;48.058;10.632;2023-07-31T08:17:15;94749.28;;;19.52;58.51
56330;BME280;42236;48.058;10.632;2023-07-31T08:20:10;94757.06;;;19.65;58.04
56330;BME280;42236;48.058;10.632;2023-07-31T08:23:00;94756.25;;;19.82;57.83
56330;BME280;42236;48.058;10.632;2023-07-31T08:25:54;94771.13;;;19.74;57.23
56330;BME280;42236;48.058;10.632;2023-07-31T08:28:40;94771.94;;;19.71;57.55
56330;BME280;42236;48.058;10.632;2023-07-31T08:31:29;94760.13;;;19.92;57.24
56330;BME280;42236;48.058;10.632;2023-07-31T08:34:15;94754.25;;;19.93;57.27
56330;BME280;42236;48.058;10.632;2023-07-31T08:37:00;94751.91;;;19.88;56.97
56330;BME280;42236;48.058;10.632;2023-07-31T08:40:34;94753.84;;;19.98;57.16
56330;BME280;42236;48.058;10.632;2023-07-31T08:43:09;94755.00;;;20.01;57.45
56330;BME280;42236;48.058;10.632;2023-07-31T08:46:03;94760.81;;;20.10;58.01
56330;BME280;42236;48.058;10.632;2023-07-31T08:48:49;94758.75;;;20.36;57.84
56330;BME280;42236;48.058;10.632;2023-07-31T08:51:41;94758.38;;;20.30;56.92
56330;BME280;42236;48.058;10.632;2023-07-31T08:55:08;94756.03;;;20.32;55.98
56330;BME280;42236;48.058;10.632;2023-07-31T08:57:55;94741.19;;;20.30;56.14
56330;BME280;42236;48.058;10.632;2023-07-31T09:01:04;94747.13;;;20.10;55.97
56330;BME280;42236;48.058;10.632;2023-07-31T09:03:51;94746.03;;;19.93;55.82
56330;BME280;42236;48.058;10.632;2023-07-31T09:06:38;94741.44;;;19.69;56.90
56330;BME280;42236;48.058;10.632;2023-07-31T09:09:24;94746.13;;;19.72;57.06
56330;BME280;42236;48.058;10.632;2023-07-31T09:12:10;94743.00;;;19.63;57.10
56330;BME280;42236;48.058;10.632;2023-07-31T09:15:00;94725.34;;;19.89;56.67
56330;BME280;42236;48.058;10.632;2023-07-31T09:18:00;94726.91;;;19.86;56.04
56330;BME280;42236;48.058;10.632;2023-07-31T09:21:00;94720.25;;;19.87;56.93
56330;BME280;42236;48.058;10.632;2023-07-31T09:23:47;94729.91;;;20.13;57.01
56330;BME280;42236;48.058;10.632;2023-07-31T09:26:36;94738.91;;;20.14;56.36
56330;BME280;42236;48.058;10.632;2023-07-31T09:29:22;94731.41;;;20.25;56.77
56330;BME280;42236;48.058;10.632;2023-07-31T09:32:16;94722.63;;;20.52;56.38
56330;BME280;42236;48.058;10.632;2023-07-31T09:42:37;94712.31;;;20.70;56.00
56330;BME280;42236;48.058;10.632;2023-07-31T09:45:23;94715.66;;;20.92;56.92
56330;BME280;42236;48.058;10.632;2023-07-31T09:48:10;94711.78;;;20.89;57.01
56330;BME280;42236;48.058;10.632;2023-07-31T09:51:05;94700.84;;;20.86;56.89
56330;BME280;42236;48.058;10.632;2023-07-31T09:53:53;94706.22;;;21.00;56.73
56330;BME280;42236;48.058;10.632;2023-07-31T09:56:48;94694.03;;;21.05;56.45
56330;BME280;42236;48.058;10.632;2023-07-31T09:59:35;94692.34;;;21.15;56.12
56330;BME280;42236;48.058;10.632;2023-07-31T10:02:22;94694.97;;;21.29;55.75
56330;BME280;42236;48.058;10.632;2023-07-31T10:05:08;94688.53;;;21.43;55.17
56330;BME280;42236;48.058;10.632;2023-07-31T10:07:54;94678.91;;;21.65;55.42
56330;BME280;42236;48.058;10.632;2023-07-31T10:10:44;94675.06;;;21.90;55.30
56330;BME280;42236;48.058;10.632;2023-07-31T10:13:31;94667.00;;;22.06;54.85
56330;BME280;42236;48.058;10.632;2023-07-31T10:16:18;94658.00;;;22.02;54.90
56330;BME280;42236;48.058;10.632;2023-07-31T10:19:27;94650.19;;;21.70;53.96
56330;BME280;42236;48.058;10.632;2023-07-31T10:22:13;94660.88;;;21.91;54.71
56330;BME280;42236;48.058;10.632;2023-07-31T10:25:00;94655.72;;;21.97;54.18
56330;BME280;42236;48.058;10.632;2023-07-31T10:27:47;94660.78;;;21.99;54.81
56330;BME280;42236;48.058;10.632;2023-07-31T10:30:33;94668.91;;;22.09;54.48
56330;BME280;42236;48.058;10.632;2023-07-31T10:33:20;94670.28;;;22.25;54.02
56330;BME280;42236;48.058;10.632;2023-07-31T10:36:14;94665.75;;;22.11;53.07
56330;BME280;42236;48.058;10.632;2023-07-31T10:39:04;94659.91;;;22.05;53.52
56330;BME280;42236;48.058;10.632;2023-07-31T10:41:50;94653.00;;;21.93;53.43
56330;BME280;42236;48.058;10.632;2023-07-31T10:44:35;94647.50;;;21.97;53.24
56330;BME280;42236;48.058;10.632;2023-07-31T10:47:21;94647.84;;;21.99;52.57
56330;BME280;42236;48.058;10.632;2023-07-31T10:50:12;94636.41;;;21.73;52.00
56330;BME280;42236;48.058;10.632;2023-07-31T10:52:58;94629.94;;;21.60;53.02
56330;BME280;42236;48.058;10.632;2023-07-31T10:55:46;94625.41;;;21.77;52.28
56330;BME280;42236;48.058;10.632;2023-07-31T10:58:33;94626.69;;;21.96;52.43
56330;BME280;42236;48.058;10.632;2023-07-31T11:01:21;94627.72;;;22.06;52.54
56330;BME280;42236;48.058;10.632;2023-07-31T11:04:10;94620.28;;;22.06;50.87
56330;BME280;42236;48.058;10.632;2023-07-31T11:07:06;94618.81;;;21.98;50.81
56330;BME280;42236;48.058;10.632;2023-07-31T11:24:49;94574.44;;;22.74;51.23
56330;BME280;42236;48.058;10.632;2023-07-31T11:27:54;94586.22;;;22.98;50.39
56330;BME280;42236;48.058;10.632;2023-07-31T11:30:43;94587.97;;;23.08;49.86
56330;BME280;42236;48.058;10.632;2023-07-31T11:44:11;94573.94;;;23.42;49.06
56330;BME280;42236;48.058;10.632;2023-07-31T11:47:26;94562.63;;;23.17;48.90
56330;BME280;42236;48.058;10.632;2023-07-31T11:54:23;94558.69;;;23.18;49.91
56330;BME280;42236;48.058;10.632;2023-07-31T12:00:58;94550.31;;;23.61;49.08
56330;BME280;42236;48.058;10.632;2023-07-31T12:04:09;94561.91;;;23.89;47.29
56330;BME280;42236;48.058;10.632;2023-07-31T12:10:47;94556.00;;;24.07;49.12
56330;BME280;42236;48.058;10.632;2023-07-31T12:13:35;94555.84;;;24.14;49.02
56330;BME280;42236;48.058;10.632;2023-07-31T12:20:07;94544.81;;;24.47;47.94
56330;BME280;42236;48.058;10.632;2023-07-31T12:26:45;94540.34;;;24.53;47.50
56330;BME280;42236;48.058;10.632;2023-07-31T12:33:18;94537.03;;;24.42;47.15
56330;BME280;42236;48.058;10.632;2023-07-31T12:36:31;94540.59;;;24.10;46.54
56330;BME280;42236;48.058;10.632;2023-07-31T12:39:23;94536.19;;;24.12;47.56
56330;BME280;42236;48.058;10.632;2023-07-31T12:45:24;94526.75;;;23.40;46.88
56330;BME280;42236;48.058;10.632;2023-07-31T12:48:53;94519.31;;;23.21;46.80
56330;BME280;42236;48.058;10.632;2023-07-31T12:51:39;94516.53;;;23.77;46.75
56330;BME280;42236;48.058;10.632;2023-07-31T12:54:25;94510.88;;;24.17;46.50
56330;BME280;42236;48.058;10.632;2023-07-31T13:01:04;94501.28;;;24.55;45.87
56330;BME280;42236;48.058;10.632;2023-07-31T13:04:00;94500.50;;;24.54;45.86
56330;BME280;42236;48.058;10.632;2023-07-31T13:06:46;94494.81;;;24.61;46.05
56330;BME280;42236;48.058;10.632;2023-07-31T13:09:44;94483.56;;;24.68;46.45
56330;BME280;42236;48.058;10.632;2023-07-31T13:12:48;94481.88;;;24.58;46.11
56330;BME280;42236;48.058;10.632;2023-07-31T13:15:36;94470.88;;;24.25;46.46
56330;BME280;42236;48.058;10.632;2023-07-31T13:18:31;94461.59;;;24.19;46.93
56330;BME280;42236;48.058;10.632;2023-07-31T13:33:04;94458.31;;;24.24;45.12
56330;BME280;42236;48.058;10.632;2023-07-31T13:40:39;94452.28;;;24.30;44.95
56330;BME280;42236;48.058;10.632;2023-07-31T13:44:01;94452.63;;;24.32;44.75
56330;BME280;42236;48.058;10.632;2023-07-31T13:54:13;94447.16;;;23.82;45.57
56330;BME280;42236;48.058;10.632;2023-07-31T14:04:11;94429.94;;;23.78;43.70
56330;BME280;42236;48.058;10.632;2023-07-31T14:10:45;94419.94;;;23.68;43.85
56330;BME280;42236;48.058;10.632;2023-07-31T14:13:33;94422.00;;;23.97;43.54
56330;BME280;42236;48.058;10.632;2023-07-31T14:16:23;94425.25;;;23.92;43.54
56330;BME280;42236;48.058;10.632;2023-07-31T14:26:52;94423.06;;;24.32;43.73
56330;BME280;42236;48.058;10.632;2023-07-31T14:33:33;94432.34;;;24.38;42.52
56330;BME280;42236;48.058;10.632;2023-07-31T14:36:21;94419.69;;;24.41;42.55
56330;BME280;42236;48.058;10.632;2023-07-31T14:39:07;94423.56;;;24.43;43.34
56330;BME280;42236;48.058;10.632;2023-07-31T14:42:29;94421.13;;;24.45;43.76
56330;BME280;42236;48.058;10.632;2023-07-31T14:45:31;94418.53;;;24.55;43.21
56330;BME280;42236;48.058;10.632;2023-07-31T14:48:17;94407.06;;;24.56;43.25
56330;BME280;42236;48.058;10.632;2023-07-31T14:51:30;94409.16;;;24.52;42.45
56330;BME280;42236;48.058;10.632;2023-07-31T14:58:04;94404.88;;;24.35;43.25
56330;BME280;42236;48.058;10.632;2023-07-31T15:00:53;94410.91;;;24.30;44.38
56330;BME280;42236;48.058;10.632;2023-07-31T15:03:41;94413.66;;;24.30;44.36
56330;BME280;42236;48.058;10.632;2023-07-31T15:06:39;94413.66;;;24.30;44.65
56330;BME280;42236;48.058;10.632;2023-07-31T15:09:27;94417.34;;;24.10;44.79
56330;BME280;42236;48.058;10.632;2023-07-31T15:16:05;94411.91;;;24.06;46.09
56330;BME280;42236;48.058;10.632;2023-07-31T15:18:50;94411.31;;;23.99;46.09
56330;BME280;42236;48.058;10.632;2023-07-31T15:21:37;94402.63;;;24.00;45.99
56330;BME280;42236;48.058;10.632;2023-07-31T15:24:23;94400.78;;;24.10;45.63
56330;BME280;42236;48.058;10.632;2023-07-31T15:27:09;94401.28;;;24.21;44.96
56330;BME280;42236;48.058;10.632;2023-07-31T15:29:55;94395.47;;;24.03;45.67
56330;BME280;42236;48.058;10.632;2023-07-31T15:36:18;94378.63;;;24.14;45.57
56330;BME280;42236;48.058;10.632;2023-07-31T15:39:37;94376.34;;;24.12;44.23
56330;BME280;42236;48.058;10.632;2023-07-31T15:42:32;94376.81;;;24.23;45.39
56330;BME280;42236;48.058;10.632;2023-07-31T15:45:42;94383.19;;;24.20;44.55
56330;BME280;42236;48.058;10.632;2023-07-31T15:48:27;94384.09;;;24.30;45.10
56330;BME280;42236;48.058;10.632;2023-07-31T15:54:32;94368.44;;;24.27;44.39
56330;BME280;42236;48.058;10.632;2023-07-31T15:57:18;94371.28;;;24.23;44.08
56330;BME280;42236;48.058;10.632;2023-07-31T16:07:18;94377.78;;;24.17;44.84
56330;BME280;42236;48.058;10.632;2023-07-31T16:14:04;94361.47;;;24.22;43.44
56330;BME280;42236;48.058;10.632;2023-07-31T16:16:50;94360.25;;;24.23;44.61
56330;BME280;42236;48.058;10.632;2023-07-31T16:19:42;94364.44;;;24.15;43.54
56330;BME280;42236;48.058;10.632;2023-07-31T16:26:04;94369.22;;;23.98;45.19
56330;BME280;42236;48.058;10.632;2023-07-31T16:28:50;94366.38;;;24.02;44.73
56330;BME280;42236;48.058;10.632;2023-07-31T16:32:01;94358.94;;;23.99;44.66
56330;BME280;42236;48.058;10.632;2023-07-31T16:34:47;94364.81;;;24.01;44.86
56330;BME280;42236;48.058;10.632;2023-07-31T16:37:33;94349.84;;;24.02;44.78
56330;BME280;42236;48.058;10.632;2023-07-31T16:40:32;94351.88;;;24.14;44.96
56330;BME280;42236;48.058;10.632;2023-07-31T16:43:18;94349.03;;;24.31;44.79
56330;BME280;42236;48.058;10.632;2023-07-31T16:46:04;94341.22;;;24.29;44.52
56330;BME280;42236;48.058;10.632;2023-07-31T16:48:56;94339.78;;;24.24;43.87
56330;BME280;42236;48.058;10.632;2023-07-31T16:51:54;94341.31;;;24.25;44.59
56330;BME280;42236;48.058;10.632;2023-07-31T16:54:55;94337.44;;;24.23;44.40
56330;BME280;42236;48.058;10.632;2023-07-31T16:57:49;94342.28;;;24.19;44.66
56330;BME280;42236;48.058;10.632;2023-07-31T17:00:35;94343.16;;;24.16;45.00
56330;BME280;42236;48.058;10.632;2023-07-31T17:03:33;94342.38;;;24.15;43.82
56330;BME280;42236;48.058;10.632;2023-07-31T17:10:14;94337.81;;;24.38;44.00
56330;BME280;42236;48.058;10.632;2023-07-31T17:13:00;94329.03;;;24.43;44.50
56330;BME280;42236;48.058;10.632;2023-07-31T17:19:33;94321.47;;;24.31;44.81
56330;BME280;42236;48.058;10.632;2023-07-31T17:22:21;94328.25;;;24.13;44.87
56330;BME280;42236;48.058;10.632;2023-07-31T17:25:08;94325.53;;;23.97;44.95
56330;BME280;42236;48.058;10.632;2023-07-31T17:28:06;94318.09;;;23.81;44.18
56330;BME280;42236;48.058;10.632;2023-07-31T17:30:54;94316.50;;;23.96;44.55
56330;BME280;42236;48.058;10.632;2023-07-31T17:33:40;94313.81;;;24.09;44.86
56330;BME280;42236;48.058;10.632;2023-07-31T17:36:42;94320.56;;;23.92;43.54
56330;BME280;42236;48.058;10.632;2023-07-31T17:39:28;94310.94;;;23.83;44.64
56330;BME280;42236;48.058;10.632;2023-07-31T17:42:22;94311.28;;;23.69;43.83
56330;BME280;42236;48.058;10.632;2023-07-31T17:45:08;94297.34;;;23.60;45.05
56330;BME280;42236;48.058;10.632;2023-07-31T17:48:10;94289.28;;;23.53;44.99
56330;BME280;42236;48.058;10.632;2023-07-31T17:50:57;94282.06;;;23.42;45.67
56330;BME280;42236;48.058;10.632;2023-07-31T17:54:20;94284.66;;;23.33;44.76
56330;BME280;42236;48.058;10.632;2023-07-31T17:57:10;94279.91;;;23.34;45.76
56330;BME280;42236;48.058;10.632;2023-07-31T18:03:53;94276.84;;;22.99;45.88
56330;BME280;42236;48.058;10.632;2023-07-31T18:06:39;94283.25;;;22.92;46.25
56330;BME280;42236;48.058;10.632;2023-07-31T18:10:15;94281.63;;;22.78;46.35
56330;BME280;42236;48.058;10.632;2023-07-31T18:13:11;94289.59;;;22.73;46.54
56330;BME280;42236;48.058;10.632;2023-07-31T18:19:38;94281.66;;;22.58;47.09
56330;BME280;42236;48.058;10.632;2023-07-31T18:22:33;94275.97;;;22.49;46.91
56330;BME280;42236;48.058;10.632;2023-07-31T18:25:22;94279.66;;;22.43;47.64
56330;BME280;42236;48.058;10.632;2023-07-31T18:28:44;94283.75;;;22.34;47.54
56330;BME280;42236;48.058;10.632;2023-07-31T18:39:16;94275.78;;;22.00;48.31
56330;BME280;42236;48.058;10.632;2023-07-31T18:42:17;94274.53;;;21.85;49.20